Terminal Aerodrome Forecast
Issued by NWS

Home | Current Version | Previous Version | Text Only | Print | Product List | Glossary On
Versions: 1 2 3 4 5 6 7 8 9 10 11 12 13 14 15 16 17 18 19 20 21 22 23 24 25 26
457
FTUS41 KBUF 120520
TAFJHW
TAF
KJHW 120520Z 1206/1306 26007KT P6SM BKN030
     FM121000 22010KT P6SM BKN050
     FM121400 22013G21KT P6SM BKN050
     FM121900 23014G21KT P6SM VCSH BKN045
     FM122200 24012KT 4SM -SN OVC025
     FM130000 25012KT 1 1/2SM -SN OVC015
     FM130300 29016G24KT 1/4SM +SN OVC007
      AMD LTD TO CLD VIS AND WIND=

USA.gov is the U.S. government's official web portal to all federal, state and local government web resources and services.